Los Surgentes, Argentina
Current Conditions -  °F | °C
As of 2:00 PM on Friday 31 Oct 2014 (Local Time) from SAAR Reporting Station
Broken Clouds Broken Clouds  
Wind Chill: 70°   Ceiling: 10000
Heat Index: 70°   Visibility: 6mi
Dew Point: 55°   Wind: 9mph
Humidity: 60%   Direction: 90°E
Pressure: 29.91"   Gusts: NA
Location:  32.97°S, 62.02°W
Report Text: SAAR 311700Z 09008KT 9999 FEW028 SCT032BKN100 21/13 Q1013
Loading
Personal Weather Stations






























Interactive Weather Map New forecast layout! Learn more

10-Day Weather Forecast

Advertisements
Track Severe Weather on mobile